createdAt,value
2022-12-13T00:01:55.636Z,3.10
2022-12-13T00:04:24.853Z,3.11
2022-12-13T00:06:53.984Z,3.07
2022-12-13T00:09:21.544Z,3.17
2022-12-13T00:11:49.225Z,3.20
2022-12-13T00:14:16.472Z,3.23
2022-12-13T00:17:45.800Z,3.23
2022-12-13T00:20:12.840Z,3.23
2022-12-13T00:22:39.776Z,3.23
2022-12-13T00:25:06.869Z,3.25
2022-12-13T00:27:33.749Z,3.27
2022-12-13T00:30:00.622Z,3.27
2022-12-13T00:32:27.941Z,3.29
2022-12-13T00:34:54.812Z,3.33
2022-12-13T00:37:21.687Z,3.35
2022-12-13T00:39:48.567Z,3.33
2022-12-13T00:42:15.468Z,3.38
2022-12-13T00:44:42.334Z,3.39
2022-12-13T00:47:10.003Z,3.40
2022-12-13T00:49:36.945Z,3.40
2022-12-13T00:52:03.892Z,3.40
2022-12-13T00:54:30.804Z,3.42
2022-12-13T00:56:57.664Z,3.42
2022-12-13T00:59:24.909Z,3.41
2022-12-13T01:01:53.458Z,3.42
2022-12-13T01:04:21.280Z,3.43
2022-12-13T01:06:49.946Z,3.45
2022-12-13T01:09:27.211Z,3.46
2022-12-13T01:11:59.170Z,3.46
2022-12-13T01:14:26.798Z,3.43
2022-12-13T01:16:55.724Z,3.41
2022-12-13T01:19:28.084Z,3.37
2022-12-13T01:22:01.806Z,3.33
2022-12-13T01:24:30.375Z,3.29
2022-12-13T01:26:58.083Z,3.23
2022-12-13T01:29:26.707Z,3.20
2022-12-13T01:31:54.162Z,3.17
2022-12-13T01:34:26.506Z,3.15
2022-12-13T01:36:57.906Z,3.15
2022-12-13T01:39:27.161Z,3.14
2022-12-13T01:41:59.398Z,3.11
2022-12-13T01:45:03.825Z,3.09
2022-12-13T01:47:41.377Z,3.00
2022-12-13T01:50:18.426Z,3.05
2022-12-13T01:52:46.237Z,3.04
2022-12-13T01:55:14.788Z,3.05
2022-12-13T01:57:45.910Z,3.07
2022-12-13T02:00:14.986Z,3.10
2022-12-13T02:02:42.020Z,3.06
2022-12-13T02:05:23.054Z,3.14
2022-12-13T02:07:51.210Z,3.17
2022-12-13T02:10:18.204Z,3.20
2022-12-13T02:12:45.350Z,3.22
2022-12-13T02:15:17.042Z,3.24
2022-12-13T02:18:09.744Z,3.26
2022-12-13T02:21:06.851Z,3.28
2022-12-13T02:24:09.460Z,3.24
2022-12-13T02:27:01.908Z,3.25
2022-12-13T02:29:58.058Z,3.29
2022-12-13T02:32:57.721Z,3.32
2022-12-13T02:35:44.610Z,3.33
2022-12-13T02:38:40.294Z,3.33
2022-12-13T02:41:18.254Z,3.34
2022-12-13T02:43:49.406Z,3.36
2022-12-13T02:46:21.716Z,3.38
2022-12-13T02:48:51.351Z,3.40
2022-12-13T02:51:19.649Z,3.42
2022-12-13T02:53:46.891Z,3.43
2022-12-13T02:56:14.168Z,3.43
2022-12-13T02:58:49.969Z,3.42
2022-12-13T03:01:41.570Z,3.38
2022-12-13T03:05:06.941Z,3.35
2022-12-13T03:08:08.942Z,3.29
2022-12-13T03:10:57.011Z,3.24
2022-12-13T03:13:48.027Z,3.22
2022-12-13T03:16:26.062Z,3.20
2022-12-13T03:18:58.295Z,3.19
2022-12-13T03:21:25.854Z,3.20
2022-12-13T03:23:52.785Z,3.15
2022-12-13T03:26:26.659Z,3.16
2022-12-13T03:28:54.428Z,3.12
2022-12-13T03:31:21.517Z,3.01
2022-12-13T03:33:48.539Z,3.01
2022-12-13T03:36:16.702Z,2.96
2022-12-13T03:38:44.879Z,2.92
2022-12-13T03:41:15.847Z,2.88
2022-12-13T03:43:43.050Z,2.84
2022-12-13T03:46:10.566Z,2.79
2022-12-13T03:48:37.794Z,2.76
2022-12-13T03:51:05.237Z,2.71
2022-12-13T03:53:34.591Z,2.66
2022-12-13T03:56:05.159Z,2.61
2022-12-13T03:58:36.244Z,2.57
2022-12-13T04:01:12.525Z,2.51
2022-12-13T04:03:43.020Z,2.42
2022-12-13T04:06:10.447Z,2.45
2022-12-13T04:08:39.008Z,2.42
2022-12-13T04:11:25.168Z,2.37
2022-12-13T04:13:53.933Z,2.28
2022-12-13T04:16:21.960Z,2.29
2022-12-13T04:18:48.993Z,2.26
2022-12-13T04:21:16.103Z,2.18
2022-12-13T04:23:42.961Z,2.22
2022-12-13T04:26:10.388Z,2.19
2022-12-13T04:28:37.299Z,2.16
2022-12-13T04:31:04.462Z,2.12
2022-12-13T04:33:32.706Z,2.10
2022-12-13T04:36:00.328Z,2.06
2022-12-13T04:38:27.513Z,2.03
2022-12-13T04:40:54.438Z,1.90
2022-12-13T04:43:21.308Z,1.97
2022-12-13T04:45:48.263Z,1.93
2022-12-13T04:48:30.213Z,1.89
2022-12-13T04:51:01.319Z,1.86
2022-12-13T04:53:29.977Z,1.83
2022-12-13T04:55:56.954Z,1.80
2022-12-13T04:58:23.838Z,1.79
2022-12-13T05:00:50.816Z,1.73
2022-12-13T05:03:17.738Z,1.71
2022-12-13T05:05:44.628Z,1.68
2022-12-13T05:08:11.611Z,1.64
2022-12-13T05:10:38.545Z,1.62
2022-12-13T05:13:06.655Z,1.60
2022-12-13T05:15:34.283Z,1.59
2022-12-13T05:18:09.580Z,1.57
2022-12-13T05:20:39.513Z,1.54
2022-12-13T05:23:06.474Z,1.54
2022-12-13T05:25:34.711Z,1.51
2022-12-13T05:28:08.914Z,1.49
2022-12-13T05:30:48.465Z,1.47
2022-12-13T05:33:15.341Z,1.46
2022-12-13T05:35:42.499Z,1.45
2022-12-13T05:38:09.546Z,1.40
2022-12-13T05:40:36.439Z,1.45
2022-12-13T05:43:03.324Z,1.42
2022-12-13T05:45:48.535Z,1.41
2022-12-13T05:48:15.419Z,1.32
2022-12-13T05:50:52.488Z,1.35
2022-12-13T05:53:37.954Z,1.34
2022-12-13T05:56:05.088Z,1.26
2022-12-13T05:58:35.453Z,1.32
2022-12-13T06:01:08.461Z,1.32
2022-12-13T06:03:36.029Z,1.32
2022-12-13T06:06:04.051Z,1.35
2022-12-13T06:08:31.312Z,1.36
2022-12-13T06:11:11.680Z,1.40
2022-12-13T06:13:44.157Z,1.42
2022-12-13T06:16:23.346Z,1.45
2022-12-13T06:18:59.348Z,1.49
2022-12-13T06:21:43.456Z,1.54
2022-12-13T06:24:14.667Z,1.58
2022-12-13T06:26:41.797Z,1.61
2022-12-13T06:29:08.660Z,1.69
2022-12-13T06:31:35.557Z,1.67
2022-12-13T06:34:14.417Z,1.77
2022-12-13T06:36:43.018Z,1.83
2022-12-13T06:39:09.935Z,1.88
2022-12-13T06:41:37.064Z,1.88
2022-12-13T06:44:04.726Z,1.95
2022-12-13T06:46:31.668Z,1.94
2022-12-13T06:48:58.637Z,2.04
2022-12-13T06:51:33.303Z,2.08
2022-12-13T06:54:04.452Z,2.07
2022-12-13T06:56:31.744Z,2.17
2022-12-13T06:59:01.823Z,2.21
2022-12-13T07:01:36.776Z,2.23
2022-12-13T07:04:28.878Z,2.23
2022-12-13T07:06:52.974Z,2.33
2022-12-13T07:09:19.817Z,2.35
2022-12-13T07:11:51.945Z,2.39
2022-12-13T07:14:19.834Z,2.42
2022-12-13T07:16:46.684Z,2.44
2022-12-13T07:19:23.387Z,2.47
2022-12-13T07:21:52.175Z,2.52
2022-12-13T07:24:19.089Z,2.54
2022-12-13T07:26:46.359Z,2.57
2022-12-13T07:29:13.305Z,2.55
2022-12-13T07:31:49.386Z,2.62
2022-12-13T07:34:16.250Z,2.66
2022-12-13T07:36:43.150Z,2.67
2022-12-13T07:39:10.807Z,2.71
2022-12-13T07:41:37.689Z,2.71
2022-12-13T07:44:05.225Z,2.77
2022-12-13T07:46:33.889Z,2.79
2022-12-13T07:49:05.322Z,2.82
2022-12-13T07:51:35.104Z,2.85
2022-12-13T07:54:07.170Z,2.87
2022-12-13T07:56:35.641Z,2.89
2022-12-13T07:59:02.620Z,2.92
2022-12-13T08:01:35.234Z,2.94
2022-12-13T08:04:03.667Z,2.88
2022-12-13T08:06:34.899Z,2.99
2022-12-13T08:09:02.018Z,2.97
2022-12-13T08:11:28.922Z,3.04
2022-12-13T08:13:55.752Z,3.08
2022-12-13T08:16:28.135Z,3.09
2022-12-13T08:19:02.486Z,3.16
2022-12-13T08:21:57.367Z,3.20
2022-12-13T08:24:30.307Z,3.24
2022-12-13T08:27:02.944Z,3.28
2022-12-13T08:29:34.986Z,3.32
2022-12-13T08:32:10.430Z,3.31
2022-12-13T08:34:37.860Z,3.37
2022-12-13T08:37:05.033Z,3.45
2022-12-13T08:39:37.576Z,3.45
2022-12-13T08:42:19.290Z,3.50
2022-12-13T08:44:48.795Z,3.53
2022-12-13T08:47:23.664Z,3.58
2022-12-13T08:50:03.017Z,3.56
2022-12-13T08:52:40.244Z,3.61
2022-12-13T08:55:14.278Z,3.66
2022-12-13T08:57:42.832Z,3.70
2022-12-13T09:00:14.321Z,3.74
2022-12-13T09:02:41.278Z,3.77
2022-12-13T09:05:10.127Z,3.82
2022-12-13T09:07:39.459Z,3.85
2022-12-13T09:10:25.697Z,3.92
2022-12-13T09:13:01.031Z,3.97
2022-12-13T09:15:33.896Z,4.03
2022-12-13T09:18:04.264Z,4.08
2022-12-13T09:20:41.067Z,4.13
2022-12-13T09:23:14.230Z,4.19
2022-12-13T09:26:05.160Z,4.23
2022-12-13T09:28:35.506Z,4.26
2022-12-13T09:31:07.502Z,4.31
2022-12-13T09:33:40.805Z,4.37
2022-12-13T09:36:11.794Z,4.41
2022-12-13T09:38:39.085Z,4.46
2022-12-13T09:41:29.218Z,4.50
2022-12-13T09:44:06.164Z,4.53
2022-12-13T09:46:54.561Z,4.57
2022-12-13T09:49:39.400Z,4.61
2022-12-13T09:52:21.304Z,4.64
2022-12-13T09:54:55.884Z,4.67
2022-12-13T09:57:33.931Z,4.71
2022-12-13T10:00:13.679Z,4.75
2022-12-13T10:02:49.008Z,4.78
2022-12-13T10:05:35.750Z,4.83
2022-12-13T10:08:15.132Z,4.85
2022-12-13T10:10:43.651Z,4.91
2022-12-13T10:13:39.505Z,4.92
2022-12-13T10:16:37.133Z,4.95
2022-12-13T10:19:29.567Z,5.00
2022-12-13T10:22:01.490Z,5.04
2022-12-13T10:24:49.643Z,5.00
2022-12-13T10:27:42.422Z,5.11
2022-12-13T10:30:16.923Z,5.14
2022-12-13T10:32:57.109Z,5.18
2022-12-13T10:35:37.204Z,5.20
2022-12-13T10:38:31.464Z,5.20
2022-12-13T10:41:00.925Z,5.21
2022-12-13T10:43:32.820Z,5.27
2022-12-13T10:46:03.983Z,5.32
2022-12-13T10:48:38.873Z,5.35
2022-12-13T10:51:20.056Z,5.34
2022-12-13T10:53:54.681Z,5.35
2022-12-13T10:56:33.386Z,5.38
2022-12-13T10:59:18.372Z,5.40
2022-12-13T11:01:45.407Z,5.37
2022-12-13T11:04:33.053Z,5.42
2022-12-13T11:07:22.532Z,5.43
2022-12-13T11:09:52.307Z,5.47
2022-12-13T11:12:26.412Z,5.49
2022-12-13T11:15:03.592Z,5.52
2022-12-13T11:17:46.601Z,5.57
2022-12-13T11:20:23.615Z,5.62
2022-12-13T11:23:04.678Z,5.68
2022-12-13T11:25:40.148Z,5.69
2022-12-13T11:28:31.956Z,5.75
2022-12-13T11:31:20.830Z,5.76
2022-12-13T11:34:02.646Z,5.77
2022-12-13T11:36:55.084Z,5.82
2022-12-13T11:39:32.085Z,5.85
2022-12-13T11:42:21.409Z,5.87
2022-12-13T11:44:58.759Z,5.84
2022-12-13T11:47:39.934Z,5.88
2022-12-13T11:50:34.293Z,5.87
2022-12-13T11:53:29.205Z,5.88
2022-12-13T11:56:28.564Z,5.85
2022-12-13T11:59:40.294Z,5.82
2022-12-13T12:02:36.007Z,5.75
2022-12-13T12:05:25.463Z,5.70
2022-12-13T12:08:31.758Z,5.67
2022-12-13T12:10:50.458Z,5.68
2022-12-13T12:13:24.582Z,5.71
2022-12-13T12:16:23.430Z,5.70
2022-12-13T12:18:51.938Z,5.65
2022-12-13T12:22:12.246Z,5.76
2022-12-13T12:24:57.502Z,5.76
2022-12-13T12:27:55.139Z,5.78
2022-12-13T12:31:13.268Z,5.74
2022-12-13T12:33:55.530Z,5.73
2022-12-13T12:37:06.275Z,5.71
2022-12-13T12:39:41.572Z,5.68
2022-12-13T12:42:44.577Z,5.67
2022-12-13T12:45:57.947Z,5.65
2022-12-13T12:49:27.768Z,5.66
2022-12-13T12:52:46.744Z,5.66
2022-12-13T12:55:58.908Z,5.62
2022-12-13T12:59:06.599Z,5.59
2022-12-13T13:01:59.271Z,5.56
2022-12-13T13:04:42.266Z,5.54
2022-12-13T13:07:29.649Z,5.54
2022-12-13T13:09:58.168Z,5.52
2022-12-13T13:12:44.180Z,5.52
2022-12-13T13:15:32.781Z,5.48
2022-12-13T13:18:00.738Z,5.47
2022-12-13T13:20:29.121Z,5.48
2022-12-13T13:23:31.925Z,5.47
2022-12-13T13:26:15.826Z,5.45
2022-12-13T13:28:42.369Z,5.45
2022-12-13T13:31:10.274Z,5.45
2022-12-13T13:33:50.933Z,5.44
2022-12-13T13:36:46.539Z,5.41
2022-12-13T13:40:01.440Z,5.38
2022-12-13T13:42:32.770Z,5.37
2022-12-13T13:45:18.022Z,5.35
2022-12-13T13:48:15.917Z,5.33
2022-12-13T13:51:09.579Z,5.32
2022-12-13T13:54:06.868Z,5.30
2022-12-13T13:56:36.109Z,5.30
2022-12-13T13:59:54.522Z,5.27
2022-12-13T14:03:00.507Z,5.25
2022-12-13T14:06:11.475Z,5.27
2022-12-13T14:09:41.782Z,5.26
2022-12-13T14:13:02.566Z,5.23
2022-12-13T14:16:21.109Z,5.23
2022-12-13T14:19:18.967Z,5.24
2022-12-13T14:22:04.159Z,5.24
2022-12-13T14:25:15.519Z,5.25
2022-12-13T14:28:14.433Z,5.23
2022-12-13T14:30:48.182Z,5.25
2022-12-13T14:33:25.909Z,5.20
2022-12-13T14:35:59.949Z,5.25
2022-12-13T14:38:30.925Z,5.26
2022-12-13T14:41:01.830Z,5.25
2022-12-13T14:43:34.572Z,5.25
2022-12-13T14:46:05.197Z,5.25
2022-12-13T14:48:49.122Z,5.26
2022-12-13T14:51:38.232Z,5.25
2022-12-13T14:54:07.951Z,5.28
2022-12-13T14:56:35.598Z,5.28
2022-12-13T14:59:12.255Z,5.26
2022-12-13T15:01:40.693Z,5.24
2022-12-13T15:04:30.867Z,5.24
2022-12-13T15:07:11.360Z,5.22
2022-12-13T15:09:42.014Z,5.20
2022-12-13T15:12:25.344Z,5.20
2022-12-13T15:15:00.427Z,5.21
2022-12-13T15:17:39.528Z,5.19
2022-12-13T15:20:28.370Z,5.16
2022-12-13T15:23:30.334Z,5.13
2022-12-13T15:26:28.721Z,5.11
2022-12-13T15:29:00.681Z,5.12
2022-12-13T15:31:28.544Z,5.12
2022-12-13T15:34:00.991Z,5.09
2022-12-13T15:36:29.603Z,5.04
2022-12-13T15:38:56.336Z,5.09
2022-12-13T15:41:28.104Z,5.02
2022-12-13T15:44:14.992Z,5.07
2022-12-13T15:46:46.711Z,5.03
2022-12-13T15:49:32.836Z,5.05
2022-12-13T15:52:14.984Z,5.05
2022-12-13T15:54:43.075Z,5.02
2022-12-13T15:57:24.530Z,5.03
2022-12-13T16:00:30.222Z,4.98
2022-12-13T16:03:08.810Z,4.98
2022-12-13T16:05:42.511Z,4.98
2022-12-13T16:08:28.377Z,4.96
2022-12-13T16:10:55.736Z,4.98
2022-12-13T16:13:33.272Z,4.95
2022-12-13T16:16:39.099Z,4.95
2022-12-13T16:19:18.122Z,4.93
2022-12-13T16:21:45.021Z,4.92
2022-12-13T16:24:12.272Z,4.90
2022-12-13T16:26:46.106Z,4.89
2022-12-13T16:29:16.965Z,4.86
2022-12-13T16:31:44.215Z,4.85
2022-12-13T16:34:11.593Z,4.84
2022-12-13T16:36:38.516Z,4.84
2022-12-13T16:39:07.732Z,4.81
2022-12-13T16:41:41.691Z,4.69
2022-12-13T16:44:12.679Z,4.74
2022-12-13T16:47:12.562Z,4.69
2022-12-13T16:49:30.778Z,4.64
2022-12-13T16:51:57.778Z,4.60
2022-12-13T16:54:25.931Z,4.54
2022-12-13T16:56:54.072Z,4.49
2022-12-13T16:59:24.745Z,4.42
2022-12-13T17:01:52.537Z,4.32
2022-12-13T17:04:24.673Z,4.25
2022-12-13T17:06:54.969Z,4.21
2022-12-13T17:09:23.213Z,4.14
2022-12-13T17:11:50.213Z,4.04
2022-12-13T17:14:17.110Z,3.98
2022-12-13T17:16:44.092Z,3.92
2022-12-13T17:19:14.518Z,3.83
2022-12-13T17:21:41.525Z,3.79
2022-12-13T17:24:08.870Z,3.73
2022-12-13T17:26:35.753Z,3.69
2022-12-13T17:29:02.952Z,3.64
2022-12-13T17:31:35.168Z,3.60
2022-12-13T17:34:03.040Z,3.57
2022-12-13T17:36:31.464Z,3.55
2022-12-13T17:38:58.779Z,3.52
2022-12-13T17:41:25.675Z,3.49
2022-12-13T17:43:52.626Z,3.45
2022-12-13T17:46:19.648Z,3.42
2022-12-13T17:48:46.827Z,3.40
2022-12-13T17:51:14.722Z,3.37
2022-12-13T17:53:43.811Z,3.35
2022-12-13T17:56:15.081Z,3.32
2022-12-13T17:58:43.511Z,3.29
2022-12-13T18:01:23.050Z,3.26
2022-12-13T18:03:53.383Z,3.22
2022-12-13T18:06:20.314Z,3.20
2022-12-13T18:08:47.616Z,3.11
2022-12-13T18:11:32.777Z,3.13
2022-12-13T18:14:01.930Z,3.08
2022-12-13T18:16:36.312Z,3.06
2022-12-13T18:19:11.736Z,2.98
2022-12-13T18:21:39.215Z,2.94
2022-12-13T18:24:07.419Z,2.91
2022-12-13T18:26:34.623Z,2.88
2022-12-13T18:29:02.092Z,2.83
2022-12-13T18:31:29.134Z,2.80
2022-12-13T18:33:56.171Z,2.79
2022-12-13T18:36:25.107Z,2.76
2022-12-13T18:38:52.235Z,2.74
2022-12-13T18:41:22.972Z,2.70
2022-12-13T18:44:02.555Z,2.61
2022-12-13T18:46:32.480Z,2.63
2022-12-13T18:48:59.784Z,2.62
2022-12-13T18:51:27.763Z,2.59
2022-12-13T18:53:55.911Z,2.46
2022-12-13T18:56:23.691Z,2.53
2022-12-13T18:58:51.979Z,2.48
2022-12-13T19:01:19.848Z,2.45
2022-12-13T19:03:48.686Z,2.42
2022-12-13T19:06:25.768Z,2.38
2022-12-13T19:08:56.301Z,2.36
2022-12-13T19:11:26.176Z,2.29
2022-12-13T19:13:53.191Z,2.31
2022-12-13T19:16:22.474Z,2.28
2022-12-13T19:18:49.688Z,2.25
2022-12-13T19:21:19.780Z,2.21
2022-12-13T19:23:53.183Z,2.18
2022-12-13T19:26:24.017Z,2.13
2022-12-13T19:28:51.073Z,2.14
2022-12-13T19:31:18.021Z,2.11
2022-12-13T19:33:45.050Z,2.03
2022-12-13T19:36:12.584Z,2.06
2022-12-13T19:38:40.409Z,2.03
2022-12-13T19:41:09.654Z,1.99
2022-12-13T19:43:36.883Z,1.91
2022-12-13T19:46:04.154Z,1.95
2022-12-13T19:48:31.395Z,1.92
2022-12-13T19:51:00.190Z,1.89
2022-12-13T19:53:28.716Z,1.86
2022-12-13T19:55:56.030Z,1.84
2022-12-13T19:58:23.879Z,1.81
2022-12-13T20:00:51.048Z,1.82
2022-12-13T20:03:18.101Z,1.80
2022-12-13T20:05:45.856Z,1.78
2022-12-13T20:08:12.896Z,1.74
2022-12-13T20:10:39.791Z,1.71
2022-12-13T20:13:06.812Z,1.66
2022-12-13T20:15:33.767Z,1.69
2022-12-13T20:18:00.660Z,1.67
2022-12-13T20:20:47.028Z,1.65
2022-12-13T20:23:15.347Z,1.59
2022-12-13T20:25:42.288Z,1.57
2022-12-13T20:28:15.961Z,1.56
2022-12-13T20:30:43.206Z,1.54
2022-12-13T20:33:10.079Z,1.50
2022-12-13T20:35:54.222Z,1.49
2022-12-13T20:38:24.846Z,1.47
2022-12-13T20:40:51.733Z,1.45
2022-12-13T20:43:18.606Z,1.42
2022-12-13T20:45:45.509Z,1.41
2022-12-13T20:48:12.371Z,1.41
2022-12-13T20:50:39.236Z,1.40
2022-12-13T20:53:06.321Z,1.38
2022-12-13T20:55:35.128Z,1.38
2022-12-13T20:58:02.010Z,1.37
2022-12-13T21:00:29.580Z,1.34
2022-12-13T21:02:56.527Z,1.33
2022-12-13T21:05:23.392Z,1.31
2022-12-13T21:08:08.904Z,1.29
2022-12-13T21:10:35.775Z,1.26
2022-12-13T21:13:02.664Z,1.25
2022-12-13T21:15:29.544Z,1.19
2022-12-13T21:17:56.440Z,1.20
2022-12-13T21:20:23.451Z,1.18
2022-12-13T21:22:50.901Z,1.16
2022-12-13T21:25:17.747Z,1.16
2022-12-13T21:27:44.648Z,1.16
2022-12-13T21:30:15.227Z,1.09
2022-12-13T21:32:42.097Z,1.14
2022-12-13T21:35:09.529Z,1.12
2022-12-13T21:37:39.095Z,1.09
2022-12-13T21:40:06.886Z,1.06
2022-12-13T21:42:33.757Z,1.05
2022-12-13T21:45:02.443Z,1.03
2022-12-13T21:47:29.524Z,1.00
2022-12-13T21:49:56.392Z,1.00
2022-12-13T21:52:23.279Z,1.00
2022-12-13T21:55:03.381Z,0.98
2022-12-13T21:57:56.835Z,0.96
2022-12-13T22:00:23.698Z,0.92
2022-12-13T22:02:50.566Z,0.91
2022-12-13T22:05:17.492Z,0.90
2022-12-13T22:07:44.488Z,0.88
2022-12-13T22:10:15.044Z,0.87
2022-12-13T22:12:41.970Z,0.86
2022-12-13T22:15:14.956Z,0.83
2022-12-13T22:17:43.061Z,0.84
2022-12-13T22:20:13.618Z,0.84
2022-12-13T22:22:42.363Z,0.84
2022-12-13T22:25:09.930Z,0.79
2022-12-13T22:27:36.835Z,0.81
2022-12-13T22:30:04.771Z,0.79
2022-12-13T22:32:32.716Z,0.79
2022-12-13T22:35:00.070Z,0.77
2022-12-13T22:37:27.306Z,0.78
2022-12-13T22:39:54.343Z,0.78
2022-12-13T22:42:21.286Z,0.77
2022-12-13T22:44:48.227Z,0.76
2022-12-13T22:47:15.175Z,0.78
2022-12-13T22:49:42.044Z,0.77
2022-12-13T22:52:09.002Z,0.78
2022-12-13T22:54:35.933Z,0.77
2022-12-13T22:57:02.933Z,0.74
2022-12-13T22:59:29.893Z,0.75
2022-12-13T23:02:02.034Z,0.75
2022-12-13T23:04:31.622Z,0.74
2022-12-13T23:06:58.547Z,0.73
2022-12-13T23:09:25.405Z,0.71
2022-12-13T23:12:11.195Z,0.71
2022-12-13T23:14:38.075Z,0.69
2022-12-13T23:17:05.676Z,0.68
2022-12-13T23:19:50.215Z,0.68
2022-12-13T23:22:22.997Z,0.67
2022-12-13T23:24:51.062Z,0.67
2022-12-13T23:27:20.327Z,0.68
2022-12-13T23:29:47.201Z,0.68
2022-12-13T23:32:14.438Z,0.68
2022-12-13T23:34:41.584Z,0.68
2022-12-13T23:37:08.482Z,0.66
2022-12-13T23:39:35.367Z,0.66
2022-12-13T23:42:02.257Z,0.65
2022-12-13T23:44:29.121Z,0.63
2022-12-13T23:46:56.082Z,0.62
2022-12-13T23:49:22.947Z,0.62
2022-12-13T23:51:49.835Z,0.61
2022-12-13T23:54:19.379Z,0.62
2022-12-13T23:56:47.196Z,0.62
2022-12-13T23:59:14.084Z,0.60
